createdAt,value
2019-03-16T00:03:18.796Z,18.45
2019-03-16T00:07:32.556Z,29.12
2019-03-16T00:11:27.768Z,11.75
2019-03-16T00:15:31.347Z,21.17
2019-03-16T00:19:34.996Z,12.00
2019-03-16T00:23:38.774Z,9.75
2019-03-16T00:27:42.537Z,9.35
2019-03-16T00:31:46.206Z,28.65
2019-03-16T00:35:50.179Z,14.45
2019-03-16T00:39:53.758Z,24.23
2019-03-16T00:43:57.356Z,10.63
2019-03-16T00:48:01.103Z,22.62
2019-03-16T00:52:04.839Z,11.55
2019-03-16T00:56:08.460Z,19.98
2019-03-16T01:00:15.194Z,12.75
2019-03-16T01:04:18.853Z,23.50
2019-03-16T01:08:22.587Z,13.38
2019-03-16T01:12:26.119Z,28.00
2019-03-16T01:16:29.871Z,29.10
2019-03-16T01:20:33.514Z,13.03
2019-03-16T01:24:37.154Z,19.85
2019-03-16T01:28:40.752Z,20.77
2019-03-16T01:32:44.381Z,19.13
2019-03-16T01:36:47.979Z,17.65
2019-03-16T01:40:51.564Z,18.95
2019-03-16T01:44:55.290Z,26.17
2019-03-16T01:48:59.001Z,16.60
2019-03-16T01:53:02.631Z,19.57
2019-03-16T01:57:06.399Z,29.50
2019-03-16T02:01:10.043Z,12.07
2019-03-16T02:05:13.891Z,19.75
2019-03-16T02:09:17.604Z,9.57
2019-03-16T02:13:21.313Z,19.65
2019-03-16T02:17:25.178Z,6.50
2019-03-16T02:21:28.885Z,15.70
2019-03-16T02:25:32.527Z,10.83
2019-03-16T02:29:36.123Z,20.75
2019-03-16T02:33:41.326Z,24.87
2019-03-16T02:37:44.945Z,11.48
2019-03-16T02:41:48.859Z,24.23
2019-03-16T02:45:52.449Z,5.17
2019-03-16T02:49:56.056Z,18.10
2019-03-16T02:53:59.696Z,19.30
2019-03-16T02:58:03.302Z,29.13
2019-03-16T03:02:06.865Z,8.68
2019-03-16T03:06:10.468Z,7.83
2019-03-16T03:10:15.334Z,16.45
2019-03-16T03:14:18.928Z,19.50
2019-03-16T03:18:22.545Z,23.77
2019-03-16T03:22:26.225Z,27.70
2019-03-16T03:26:29.969Z,24.85
2019-03-16T03:30:33.602Z,15.48
2019-03-16T03:34:37.232Z,21.27
2019-03-16T03:38:40.968Z,24.90
2019-03-16T03:42:44.613Z,16.60
2019-03-16T03:46:48.278Z,27.87
2019-03-16T03:50:52.043Z,26.95
2019-03-16T03:54:55.713Z,10.40
2019-03-16T03:58:59.452Z,21.48
2019-03-16T04:03:03.079Z,24.05
2019-03-16T04:07:06.754Z,23.32
2019-03-16T04:11:10.412Z,22.02
2019-03-16T04:15:14.215Z,26.60
2019-03-16T04:19:19.413Z,11.88
2019-03-16T04:27:25.915Z,25.82
2019-03-16T04:31:29.617Z,31.57
2019-03-16T04:35:33.316Z,32.90
2019-03-16T04:39:37.004Z,24.80
2019-03-16T04:43:40.699Z,24.47
2019-03-16T04:47:44.290Z,34.65
2019-03-16T04:51:48.024Z,31.97
2019-03-16T04:55:51.739Z,32.00
2019-03-16T04:59:55.435Z,33.00
2019-03-16T05:03:59.143Z,31.50
2019-03-16T05:08:02.710Z,19.48
2019-03-16T05:12:06.307Z,18.85
2019-03-16T05:16:09.976Z,22.13
2019-03-16T05:20:13.749Z,23.50
2019-03-16T05:24:17.433Z,24.02
2019-03-16T05:28:21.212Z,22.80
2019-03-16T05:32:24.981Z,38.88
2019-03-16T05:36:29.767Z,18.67
2019-03-16T05:40:33.440Z,22.37
2019-03-16T05:44:37.179Z,15.43
2019-03-16T05:48:40.979Z,19.82
2019-03-16T05:52:44.870Z,16.85
2019-03-16T05:56:49.983Z,21.70
2019-03-16T06:00:56.713Z,25.27
2019-03-16T06:05:10.301Z,21.60
2019-03-16T06:09:07.387Z,19.20
2019-03-16T06:13:11.073Z,9.25
2019-03-16T06:17:14.695Z,20.82
2019-03-16T06:21:18.344Z,14.50
2019-03-16T06:25:22.000Z,14.15
2019-03-16T06:29:25.607Z,10.90
2019-03-16T06:33:29.551Z,15.35
2019-03-16T06:37:33.148Z,15.38
2019-03-16T06:41:36.747Z,22.02
2019-03-16T06:45:40.351Z,26.65
2019-03-16T06:49:44.074Z,10.40
2019-03-16T06:53:47.791Z,12.40
2019-03-16T06:57:51.499Z,14.27
2019-03-16T07:01:56.468Z,23.35
2019-03-16T07:06:00.163Z,15.67
2019-03-16T07:10:04.462Z,16.57
2019-03-16T07:14:08.152Z,20.17
2019-03-16T07:18:11.987Z,15.88
2019-03-16T07:22:15.651Z,14.78
2019-03-16T07:26:19.375Z,18.60
2019-03-16T07:30:23.008Z,20.35
2019-03-16T07:34:26.578Z,22.17
2019-03-16T07:38:30.285Z,20.77
2019-03-16T07:42:33.911Z,15.90
2019-03-16T07:46:37.585Z,23.52
2019-03-16T07:50:41.247Z,24.40
2019-03-16T07:54:44.928Z,19.10
2019-03-16T07:58:48.576Z,20.97
2019-03-16T08:02:52.191Z,9.25
2019-03-16T08:06:55.788Z,25.20
2019-03-16T08:10:59.384Z,18.67
2019-03-16T08:15:03.222Z,15.35
2019-03-16T08:19:06.831Z,22.00
2019-03-16T08:23:10.445Z,17.62
2019-03-16T08:27:14.060Z,12.68
2019-03-16T08:31:17.719Z,23.87
2019-03-16T08:35:21.395Z,15.88
2019-03-16T08:39:25.068Z,12.60
2019-03-16T08:43:28.744Z,14.53
2019-03-16T08:47:32.771Z,13.88
2019-03-16T08:51:37.942Z,19.92
2019-03-16T08:55:42.583Z,22.93
2019-03-16T08:59:46.312Z,11.30
2019-03-16T09:03:49.945Z,1.12
2019-03-16T09:07:53.667Z,13.88
2019-03-16T09:11:58.426Z,13.80
2019-03-16T09:16:02.106Z,5.62
2019-03-16T09:20:07.693Z,12.65
2019-03-16T09:28:18.838Z,8.53
2019-03-16T09:32:19.524Z,6.58
2019-03-16T09:36:23.087Z,9.20
2019-03-16T09:40:26.767Z,4.40
2019-03-16T09:44:30.366Z,7.33
2019-03-16T09:48:33.952Z,4.87
2019-03-16T09:52:37.583Z,7.62
2019-03-16T09:56:41.245Z,2.60
2019-03-16T10:00:44.891Z,9.88
2019-03-16T10:04:48.628Z,4.08
2019-03-16T10:08:53.464Z,3.33
2019-03-16T10:12:57.039Z,5.85
2019-03-16T10:17:00.676Z,3.98
2019-03-16T10:21:04.386Z,5.10
2019-03-16T10:25:08.765Z,4.85
2019-03-16T10:29:12.505Z,4.50
2019-03-16T10:33:16.220Z,4.28
2019-03-16T10:37:19.972Z,11.70
2019-03-16T10:41:23.623Z,7.92
2019-03-16T10:45:27.286Z,5.25
2019-03-16T10:49:30.999Z,9.50
2019-03-16T10:53:34.664Z,9.35
2019-03-16T10:57:38.271Z,8.85
2019-03-16T11:01:41.960Z,8.58
2019-03-16T11:05:45.640Z,8.25
2019-03-16T11:09:49.402Z,4.05
2019-03-16T11:13:53.209Z,3.35
2019-03-16T11:17:56.955Z,10.25
2019-03-16T11:22:00.623Z,5.33
2019-03-16T11:26:04.459Z,8.30
2019-03-16T11:30:11.286Z,1.00
2019-03-16T11:34:15.038Z,3.40
2019-03-16T11:38:18.669Z,1.95
2019-03-16T11:42:22.238Z,1.82
2019-03-16T11:46:25.920Z,3.72
2019-03-16T11:50:29.973Z,4.37
2019-03-16T11:54:33.598Z,2.85
2019-03-16T11:58:37.254Z,1.15
2019-03-16T12:02:40.852Z,2.17
2019-03-16T12:06:44.440Z,1.10
2019-03-16T12:10:48.118Z,1.20
2019-03-16T12:14:51.718Z,1.42
2019-03-16T12:18:55.451Z,1.57
2019-03-16T12:22:59.054Z,0.98
2019-03-16T12:27:02.802Z,2.27
2019-03-16T12:31:06.445Z,1.37
2019-03-16T12:35:10.243Z,2.62
2019-03-16T12:39:16.802Z,6.15
2019-03-16T12:43:20.395Z,1.17
2019-03-16T12:47:23.981Z,5.33
2019-03-16T12:51:27.634Z,2.62
2019-03-16T12:55:31.336Z,5.75
2019-03-16T12:59:46.316Z,6.97
2019-03-16T13:03:46.212Z,7.58
2019-03-16T13:07:49.931Z,3.87
2019-03-16T13:11:53.919Z,3.87
2019-03-16T13:15:57.475Z,6.53
2019-03-16T13:20:01.455Z,7.78
2019-03-16T13:24:05.498Z,5.65
2019-03-16T13:28:09.176Z,6.15
2019-03-16T13:32:13.313Z,7.20
2019-03-16T13:36:17.158Z,7.20
2019-03-16T13:40:20.836Z,6.47
2019-03-16T13:44:24.851Z,5.05
2019-03-16T13:48:28.745Z,5.83
2019-03-16T13:52:32.635Z,5.47
2019-03-16T13:56:36.491Z,6.45
2019-03-16T14:00:40.171Z,6.03
2019-03-16T14:04:44.035Z,12.75
2019-03-16T14:08:48.163Z,7.72
2019-03-16T14:12:52.378Z,7.83
2019-03-16T14:16:56.176Z,9.90
2019-03-16T14:21:00.354Z,7.40
2019-03-16T14:25:07.505Z,7.28
2019-03-16T14:29:11.106Z,8.50
2019-03-16T14:33:14.796Z,8.07
2019-03-16T14:37:18.792Z,9.38
2019-03-16T14:41:22.952Z,10.75
2019-03-16T14:45:26.986Z,12.23
2019-03-16T14:49:30.578Z,10.38
2019-03-16T14:53:34.166Z,9.53
2019-03-16T14:57:38.214Z,11.88
2019-03-16T15:01:42.093Z,13.60
2019-03-16T15:05:46.138Z,18.20
2019-03-16T15:09:50.021Z,19.70
2019-03-16T15:13:53.630Z,14.50
2019-03-16T15:17:57.668Z,20.40
2019-03-16T15:22:01.572Z,22.35
2019-03-16T15:26:05.593Z,20.48
2019-03-16T15:30:14.857Z,20.30
2019-03-16T15:34:18.617Z,22.02
2019-03-16T15:38:23.949Z,25.50
2019-03-16T15:42:27.604Z,26.00
2019-03-16T15:46:31.785Z,22.82
2019-03-16T15:50:35.629Z,21.87
2019-03-16T15:54:39.255Z,23.92
2019-03-16T15:58:43.103Z,26.42
2019-03-16T16:02:47.094Z,23.07
2019-03-16T16:06:50.855Z,17.60
2019-03-16T16:11:00.832Z,23.67
2019-03-16T16:14:59.799Z,19.73
2019-03-16T16:19:22.745Z,26.95
2019-03-16T16:23:26.325Z,18.00
2019-03-16T16:27:30.021Z,20.05
2019-03-16T16:31:33.671Z,16.65
2019-03-16T16:35:37.372Z,22.32
2019-03-16T16:39:41.120Z,18.45
2019-03-16T16:43:44.832Z,12.73
2019-03-16T16:47:48.831Z,14.33
2019-03-16T16:51:52.518Z,11.65
2019-03-16T16:55:56.375Z,16.23
2019-03-16T17:00:04.648Z,9.43
2019-03-16T17:04:08.300Z,12.00
2019-03-16T17:08:12.065Z,13.38
2019-03-16T17:12:15.728Z,14.28
2019-03-16T17:16:19.678Z,16.73
2019-03-16T17:20:23.749Z,13.80
2019-03-16T17:24:27.346Z,6.80
2019-03-16T17:28:31.091Z,9.58
2019-03-16T17:32:34.924Z,10.35
2019-03-16T17:36:38.771Z,16.75
2019-03-16T17:40:42.516Z,10.95
2019-03-16T17:44:46.148Z,9.60
2019-03-16T17:48:49.832Z,18.07
2019-03-16T17:52:53.475Z,15.13
2019-03-16T17:56:57.075Z,9.00
2019-03-16T18:01:00.697Z,11.80
2019-03-16T18:05:05.203Z,17.62
2019-03-16T18:09:08.985Z,15.93
2019-03-16T18:13:12.544Z,10.97
2019-03-16T18:17:17.767Z,14.93
2019-03-16T18:21:21.382Z,13.83
2019-03-16T18:25:24.957Z,14.55
2019-03-16T18:29:28.663Z,13.68
2019-03-16T18:33:32.280Z,11.35
2019-03-16T18:37:35.940Z,15.35
2019-03-16T18:41:39.545Z,18.17
2019-03-16T18:45:43.255Z,13.95
2019-03-16T18:49:47.120Z,9.95
2019-03-16T18:53:51.077Z,8.63
2019-03-16T18:57:54.799Z,12.25
2019-03-16T19:01:58.595Z,7.45
2019-03-16T19:06:02.558Z,14.78
2019-03-16T19:10:17.163Z,7.83
2019-03-16T19:14:20.775Z,7.87
2019-03-16T19:18:24.851Z,5.70
2019-03-16T19:22:28.831Z,9.30
2019-03-16T19:26:32.597Z,3.70
2019-03-16T19:30:36.555Z,6.35
2019-03-16T19:34:40.317Z,9.15
2019-03-16T19:38:44.203Z,5.30
2019-03-16T19:42:48.263Z,3.60
2019-03-16T19:46:51.986Z,4.60
2019-03-16T19:50:56.040Z,7.87
2019-03-16T19:54:59.940Z,9.60
2019-03-16T19:59:03.751Z,5.05
2019-03-16T20:03:07.627Z,7.00
2019-03-16T20:07:19.135Z,7.85
2019-03-16T20:11:17.527Z,6.20
2019-03-16T20:15:21.367Z,1.87
2019-03-16T20:19:25.451Z,1.32
2019-03-16T20:23:29.559Z,12.20
2019-03-16T20:27:33.352Z,3.20
2019-03-16T20:31:46.815Z,3.47
2019-03-16T20:35:43.756Z,7.75
2019-03-16T20:39:49.012Z,4.45
2019-03-16T20:43:52.931Z,4.73
2019-03-16T20:47:57.176Z,3.20
2019-03-16T20:52:03.649Z,7.35
2019-03-16T20:56:09.327Z,3.52
2019-03-16T21:00:17.418Z,6.70
2019-03-16T21:04:23.036Z,2.62
2019-03-16T21:08:26.951Z,5.95
2019-03-16T21:12:30.912Z,5.78
2019-03-16T21:16:34.617Z,8.95
2019-03-16T21:20:38.211Z,2.70
2019-03-16T21:24:41.972Z,9.35
2019-03-16T21:28:45.521Z,3.30
2019-03-16T21:32:49.211Z,7.92
2019-03-16T21:36:53.380Z,2.75
2019-03-16T21:40:59.154Z,5.28
2019-03-16T21:45:02.342Z,10.17
2019-03-16T21:49:06.120Z,7.42
2019-03-16T21:53:09.872Z,6.45
2019-03-16T21:57:13.524Z,7.83
2019-03-16T22:01:18.342Z,4.93
2019-03-16T22:09:25.013Z,4.78
2019-03-16T22:13:28.579Z,6.75
2019-03-16T22:17:32.293Z,7.17
2019-03-16T22:21:35.900Z,4.45
2019-03-16T22:25:39.559Z,10.28
2019-03-16T22:29:43.151Z,7.58
2019-03-16T22:33:54.449Z,4.12
2019-03-16T22:37:52.198Z,10.10
2019-03-16T22:41:55.828Z,8.73
2019-03-16T22:45:59.449Z,12.40
2019-03-16T22:50:03.401Z,7.12
2019-03-16T22:54:07.119Z,5.55
2019-03-16T22:58:10.920Z,8.65
2019-03-16T23:02:14.580Z,8.65
2019-03-16T23:06:18.312Z,3.60
2019-03-16T23:10:21.981Z,5.37
2019-03-16T23:14:25.559Z,5.33
2019-03-16T23:18:29.261Z,6.60
2019-03-16T23:22:32.974Z,5.42
2019-03-16T23:26:38.658Z,4.83
2019-03-16T23:30:41.916Z,5.67
2019-03-16T23:34:45.524Z,5.65
2019-03-16T23:38:49.199Z,14.35
2019-03-16T23:42:53.147Z,6.45
2019-03-16T23:46:56.818Z,9.88
2019-03-16T23:51:00.498Z,7.35
2019-03-16T23:55:05.520Z,8.63
2019-03-16T23:59:09.320Z,5.42
